Athens Township, Pennsylvania
Current Conditions -  °F | °C
As of 12:04 AM on Wednesday 22 Oct 2014 (Local Time) from KBGM Reporting Station
Overcast Overcast  
Wind Chill:   Ceiling: 600
Heat Index:   Visibility: 9mi
Dew Point:   Wind: 7mph
Humidity: 93%   Direction: 10°N
Pressure: 29.97"   Gusts: NA
Location:  41.9771°N, 76.4144°W
Report Text: KBGM 220404Z AUTO 01006KT 9SM OVC006 09/08 A2997 RMK AO2 CIG 003V008 T00940083
Loading
Personal Weather Stations






























Interactive Weather Map
Tropical Storm Tracking
New forecast layout! Learn more

10-Day Weather Forecast

Advertisements
Track Severe Weather on mobile